Time;durP1;ratioP1;P1;durP2;ratioP2;P2;SDS_P1;SDS_P2;PMS_P1;PMS_P2;Temp;Humidity;BMP_temperature;BMP_pressure;BME280_temperature;BME280_humidity;BME280_pressure;Samples;Min_cycle;Max_cycle;Signal;HPM_P1;HPM_P2
2023/11/23 00:02:07;;;;;;;11.13;9.93;;;4.40;99.90;;;;;;4992487;28;20665;-82
2023/11/23 00:04:34;;;;;;;10.98;9.82;;;4.40;99.90;;;;;;4992184;28;20223;-82
2023/11/23 00:07:02;;;;;;;10.50;9.50;;;4.40;99.90;;;;;;4993634;28;20223;-82
2023/11/23 00:09:29;;;;;;;11.18;10.00;;;4.30;99.90;;;;;;4996532;28;20688;-82
2023/11/23 00:11:56;;;;;;;9.98;8.80;;;4.30;99.90;;;;;;4997022;28;20311;-82
2023/11/23 00:14:23;;;;;;;10.90;10.00;;;4.40;99.90;;;;;;4996231;28;20223;-82
2023/11/23 00:16:50;;;;;;;10.82;9.73;;;4.50;99.90;;;;;;4996512;28;20222;-82
2023/11/23 00:19:19;;;;;;;9.95;8.95;;;4.40;99.90;;;;;;4996958;28;20608;-79
2023/11/23 00:21:49;;;;;;;10.90;9.90;;;4.50;99.90;;;;;;5012111;28;20233;-84
2023/11/23 00:24:17;;;;;;;9.77;8.85;;;4.50;99.90;;;;;;5015491;28;20237;-78
2023/11/23 00:26:47;;;;;;;9.85;8.85;;;4.50;99.90;;;;;;5005829;28;20772;-83
2023/11/23 00:29:17;;;;;;;9.35;8.35;;;4.50;99.90;;;;;;5005836;28;20236;-78
2023/11/23 00:31:51;;;;;;;9.35;7.97;;;4.50;99.90;;;;;;5013589;28;20237;-78
2023/11/23 00:34:20;;;;;;;11.07;9.88;;;4.60;99.90;;;;;;4996750;28;20218;-79
2023/11/23 00:36:47;;;;;;;10.57;9.57;;;4.60;99.90;;;;;;4995933;28;20626;-83
2023/11/23 00:39:14;;;;;;;10.63;8.70;;;4.60;99.90;;;;;;4996294;28;20677;-83
2023/11/23 00:41:41;;;;;;;9.10;8.20;;;4.60;99.90;;;;;;4990389;28;20250;-83
2023/11/23 00:44:08;;;;;;;9.68;8.63;;;4.60;99.90;;;;;;4976945;28;20611;-78
2023/11/23 00:46:36;;;;;;;8.23;7.38;;;4.60;99.90;;;;;;4976894;28;20247;-83
2023/11/23 00:49:04;;;;;;;9.55;8.18;;;4.60;99.90;;;;;;4977259;28;20223;-83
2023/11/23 00:51:33;;;;;;;9.75;8.75;;;4.60;99.90;;;;;;4982711;28;20223;-83
2023/11/23 00:54:00;;;;;;;12.02;9.65;;;4.60;99.90;;;;;;4995813;28;20318;-78
2023/11/23 00:56:27;;;;;;;8.85;7.93;;;4.60;99.90;;;;;;4996130;28;20274;-78
2023/11/23 00:58:55;;;;;;;10.10;9.10;;;4.60;99.90;;;;;;4995764;28;20222;-78
2023/11/23 01:01:22;;;;;;;9.70;8.70;;;4.70;99.90;;;;;;4995250;28;20237;-78
2023/11/23 01:03:49;;;;;;;9.32;8.43;;;4.80;99.90;;;;;;4985537;28;20291;-78
2023/11/23 01:06:20;;;;;;;12.02;10.93;;;4.80;99.90;;;;;;4995743;28;20305;-78
2023/11/23 01:08:49;;;;;;;8.90;8.00;;;4.80;99.90;;;;;;4986957;28;20231;-83
2023/11/23 01:11:16;;;;;;;9.40;7.68;;;4.80;99.90;;;;;;4995091;28;20598;-83
2023/11/23 01:13:49;;;;;;;9.13;8.23;;;4.80;99.90;;;;;;4995207;28;20237;-82
2023/11/23 01:16:25;;;;;;;9.30;7.18;;;4.80;99.90;;;;;;4995487;28;20250;-78
2023/11/23 01:18:57;;;;;;;8.98;8.18;;;4.90;99.90;;;;;;4994256;28;20233;-83
2023/11/23 01:21:35;;;;;;;8.18;7.38;;;4.90;99.90;;;;;;4998754;28;20316;-82
2023/11/23 01:24:11;;;;;;;9.20;8.30;;;4.90;99.90;;;;;;5012867;28;20226;-83
2023/11/23 01:26:45;;;;;;;7.68;6.93;;;5.00;99.90;;;;;;5015149;28;20221;-83
2023/11/23 01:29:12;;;;;;;8.85;7.10;;;5.00;99.90;;;;;;5014556;28;20233;-77
2023/11/23 01:31:39;;;;;;;7.50;6.80;;;5.00;99.90;;;;;;5015283;28;20321;-82
2023/11/23 01:34:06;;;;;;;6.72;6.03;;;5.00;99.90;;;;;;4995107;28;20277;-82
2023/11/23 01:36:33;;;;;;;9.23;7.07;;;5.10;99.90;;;;;;4995817;28;20231;-83
2023/11/23 01:39:00;;;;;;;6.50;6.00;;;5.10;99.90;;;;;;4995057;28;20699;-82
2023/11/23 01:41:28;;;;;;;8.10;6.22;;;5.20;99.90;;;;;;4994719;28;20360;-82
2023/11/23 01:43:55;;;;;;;7.07;6.38;;;5.20;99.90;;;;;;4995131;28;20250;-82
2023/11/23 01:46:22;;;;;;;6.72;5.68;;;5.20;99.90;;;;;;4994859;28;20227;-77
2023/11/23 01:48:51;;;;;;;5.72;5.18;;;5.30;99.90;;;;;;4995563;28;20234;-82
2023/11/23 01:51:19;;;;;;;6.60;6.00;;;5.30;99.90;;;;;;4992674;28;20227;-82
2023/11/23 01:53:46;;;;;;;7.43;6.63;;;5.30;99.90;;;;;;4983769;28;20285;-82
2023/11/23 01:56:13;;;;;;;7.03;4.80;;;5.40;99.90;;;;;;4995437;28;20310;-82
2023/11/23 01:58:41;;;;;;;6.57;5.15;;;5.40;99.90;;;;;;4993804;28;20250;-81
2023/11/23 02:01:09;;;;;;;5.95;5.40;;;5.40;99.90;;;;;;4985263;28;20238;-82
2023/11/23 02:03:37;;;;;;;6.38;5.88;;;5.40;99.90;;;;;;4985585;28;20227;-77
2023/11/23 02:06:04;;;;;;;6.38;5.88;;;5.40;99.90;;;;;;4974444;28;20237;-77
2023/11/23 02:08:31;;;;;;;5.47;4.95;;;5.40;99.90;;;;;;4975906;28;20327;-76
2023/11/23 02:10:58;;;;;;;6.63;5.75;;;5.50;99.90;;;;;;4975246;28;20219;-81
2023/11/23 02:13:26;;;;;;;5.18;4.57;;;5.60;99.90;;;;;;4975569;28;20234;-82
2023/11/23 02:15:54;;;;;;;4.90;4.50;;;5.70;99.90;;;;;;4974806;28;20223;-77
2023/11/23 02:18:22;;;;;;;15.52;9.93;;;5.70;99.90;;;;;;4973668;28;20562;-77
2023/11/23 02:20:49;;;;;;;5.05;4.25;;;5.80;99.90;;;;;;4992318;28;20225;-82
2023/11/23 02:23:16;;;;;;;4.25;3.95;;;5.90;99.90;;;;;;5012728;28;20312;-82
2023/11/23 02:25:46;;;;;;;5.75;4.07;;;5.80;99.90;;;;;;5013044;28;20260;-82
2023/11/23 02:28:13;;;;;;;5.00;4.53;;;5.90;99.90;;;;;;5012774;28;20302;-77
2023/11/23 02:30:40;;;;;;;5.00;3.65;;;5.90;99.90;;;;;;5012927;28;20272;-82
2023/11/23 02:33:08;;;;;;;4.95;4.47;;;5.90;99.90;;;;;;5002017;28;20227;-82
2023/11/23 02:35:35;;;;;;;8.38;6.60;;;6.00;99.90;;;;;;4994657;28;20223;-77
2023/11/23 02:38:02;;;;;;;5.97;5.38;;;6.10;99.90;;;;;;4994068;28;20250;-77
2023/11/23 02:40:29;;;;;;;6.03;5.43;;;6.20;99.90;;;;;;4994881;28;20306;-81
2023/11/23 02:42:57;;;;;;;4.53;4.13;;;6.20;99.90;;;;;;4992517;28;20226;-82
2023/11/23 02:45:24;;;;;;;16.85;11.65;;;6.30;99.90;;;;;;4993423;28;20318;-77
2023/11/23 02:47:52;;;;;;;6.07;4.00;;;6.40;99.90;;;;;;4993731;28;20313;-77
2023/11/23 02:50:19;;;;;;;46.47;28.40;;;6.50;99.90;;;;;;4994372;28;20245;-77
2023/11/23 02:52:46;;;;;;;5.75;4.70;;;6.50;99.90;;;;;;4984735;28;20313;-77
2023/11/23 02:55:13;;;;;;;11.23;7.50;;;6.60;99.90;;;;;;4994412;28;20676;-82
2023/11/23 02:57:42;;;;;;;5.40;4.45;;;6.70;99.90;;;;;;4994685;28;20732;-82
2023/11/23 03:00:12;;;;;;;7.53;5.32;;;6.70;99.90;;;;;;4994194;28;20237;-82
2023/11/23 03:02:39;;;;;;;5.47;5.03;;;6.80;99.90;;;;;;4992759;28;20228;-77
2023/11/23 03:05:14;;;;;;;4.18;3.75;;;6.80;99.90;;;;;;4979668;28;20235;-81
2023/11/23 03:07:41;;;;;;;4.30;3.90;;;6.80;99.90;;;;;;4975807;28;20226;-81
2023/11/23 03:10:09;;;;;;;8.98;6.68;;;6.90;99.90;;;;;;4983709;28;20223;-78
2023/11/23 03:12:36;;;;;;;4.38;3.97;;;6.90;99.90;;;;;;4993820;28;20305;-78
2023/11/23 03:15:03;;;;;;;4.32;3.65;;;6.90;99.90;;;;;;4994878;28;20299;-82
2023/11/23 03:17:33;;;;;;;6.45;4.50;;;7.00;99.90;;;;;;4993516;28;20218;-82
2023/11/23 03:20:00;;;;;;;8.02;7.22;;;7.10;99.90;;;;;;4992992;28;20289;-82
2023/11/23 03:22:27;;;;;;;7.22;5.63;;;7.10;99.90;;;;;;4983013;28;20233;-77
2023/11/23 03:24:55;;;;;;;4.70;4.18;;;7.20;99.90;;;;;;4991841;28;20222;-82
2023/11/23 03:27:22;;;;;;;3.88;3.58;;;7.20;99.90;;;;;;4991644;28;20257;-77
2023/11/23 03:29:50;;;;;;;6.60;4.35;;;7.20;99.90;;;;;;4989104;28;20227;-77
2023/11/23 03:32:17;;;;;;;10.35;7.32;;;7.30;99.90;;;;;;4975904;28;20234;-81
2023/11/23 03:34:47;;;;;;;5.28;4.18;;;7.30;99.90;;;;;;4991661;28;20226;-81
2023/11/23 03:37:15;;;;;;;4.47;4.07;;;7.30;99.90;;;;;;4989726;28;20239;-81
2023/11/23 03:39:43;;;;;;;6.22;4.15;;;7.40;99.90;;;;;;4992715;28;20230;-76
2023/11/23 03:42:09;;;;;;;5.60;3.72;;;7.30;99.90;;;;;;4993762;28;20626;-80
2023/11/23 03:44:36;;;;;;;4.28;3.88;;;7.30;99.90;;;;;;4998298;28;20242;-81
2023/11/23 03:47:04;;;;;;;4.90;4.40;;;7.30;99.90;;;;;;4988343;28;20226;-81
2023/11/23 03:49:31;;;;;;;7.00;4.07;;;7.40;99.90;;;;;;4989802;28;20743;-81
2023/11/23 03:51:59;;;;;;;8.02;5.45;;;7.40;99.90;;;;;;4989498;28;20237;-82
2023/11/23 03:54:28;;;;;;;5.10;4.30;;;7.40;99.90;;;;;;4988527;28;20618;-77
2023/11/23 03:56:55;;;;;;;4.93;4.10;;;7.40;99.90;;;;;;4981505;28;20206;-76
2023/11/23 03:59:22;;;;;;;14.07;9.20;;;7.50;99.90;;;;;;4996975;28;20566;-80
2023/11/23 04:01:49;;;;;;;8.65;7.47;;;7.50;99.90;;;;;;4997578;28;20265;-76
2023/11/23 04:04:16;;;;;;;10.75;7.25;;;7.50;99.90;;;;;;4997004;28;20753;-79
2023/11/23 04:06:44;;;;;;;6.88;5.35;;;7.50;99.90;;;;;;4997267;28;20246;-82
2023/11/23 04:09:12;;;;;;;7.00;5.88;;;7.60;99.90;;;;;;4998075;28;20228;-81
2023/11/23 04:11:39;;;;;;;6.20;4.80;;;7.70;99.90;;;;;;4997336;28;20649;-82
2023/11/23 04:14:06;;;;;;;11.93;8.20;;;7.70;99.90;;;;;;4997820;28;20223;-81
2023/11/23 04:16:33;;;;;;;8.20;5.80;;;7.70;99.90;;;;;;4996857;28;20281;-77
2023/11/23 04:19:00;;;;;;;5.35;4.78;;;7.70;99.90;;;;;;4997046;28;20642;-82
2023/11/23 04:21:27;;;;;;;5.78;5.15;;;7.80;99.90;;;;;;5010468;28;20621;-77
2023/11/23 04:23:54;;;;;;;10.27;7.32;;;7.80;99.90;;;;;;4997659;28;20293;-82
2023/11/23 04:26:22;;;;;;;9.77;7.28;;;7.80;99.90;;;;;;4996711;28;20321;-77
2023/11/23 04:28:50;;;;;;;7.50;6.10;;;7.80;99.90;;;;;;4986892;28;20233;-77
2023/11/23 04:31:17;;;;;;;7.40;6.38;;;7.80;99.90;;;;;;4992261;28;20223;-82
2023/11/23 04:33:44;;;;;;;8.85;6.75;;;7.80;99.90;;;;;;4995698;28;20289;-82
2023/11/23 04:36:12;;;;;;;14.10;12.60;;;7.90;99.90;;;;;;4984417;28;20259;-82
2023/11/23 04:38:39;;;;;;;7.90;7.15;;;7.90;99.90;;;;;;4991226;28;20234;-78
2023/11/23 04:41:07;;;;;;;5.70;4.93;;;7.90;99.90;;;;;;4989554;28;20223;-82
2023/11/23 04:43:35;;;;;;;10.48;7.30;;;8.00;99.90;;;;;;4996485;28;20600;-81
2023/11/23 04:46:01;;;;;;;9.18;6.85;;;8.00;99.90;;;;;;4997289;28;20258;-82
2023/11/23 04:48:28;;;;;;;6.20;5.28;;;8.00;99.90;;;;;;4996716;28;20222;-81
2023/11/23 04:50:55;;;;;;;8.52;7.63;;;8.00;99.90;;;;;;4997090;28;20222;-81
2023/11/23 04:53:21;;;;;;;16.08;13.38;;;8.00;99.90;;;;;;4996582;28;20254;-81
2023/11/23 04:55:48;;;;;;;7.22;6.05;;;8.00;99.90;;;;;;4992890;28;20657;-81
2023/11/23 04:58:15;;;;;;;11.73;10.32;;;8.10;99.90;;;;;;4977098;28;20282;-83
2023/11/23 05:00:43;;;;;;;26.10;15.73;;;8.20;99.90;;;;;;4979376;28;20684;-83
2023/11/23 05:03:15;;;;;;;14.20;9.70;;;8.20;99.90;;;;;;4981564;28;20302;-83
2023/11/23 05:05:42;;;;;;;6.65;5.40;;;8.20;99.90;;;;;;4996741;28;20265;-83
2023/11/23 05:08:09;;;;;;;7.72;6.25;;;8.20;99.90;;;;;;4996027;28;20633;-83
2023/11/23 05:10:36;;;;;;;8.00;6.15;;;8.30;99.90;;;;;;4994424;28;20229;-82
2023/11/23 05:13:04;;;;;;;6.15;5.55;;;8.30;99.90;;;;;;4994892;28;20537;-82
2023/11/23 05:15:31;;;;;;;6.70;5.70;;;8.30;99.90;;;;;;4994078;28;20679;-83
2023/11/23 05:17:59;;;;;;;5.55;5.00;;;8.30;99.90;;;;;;4994459;28;20242;-83
2023/11/23 05:20:26;;;;;;;9.00;6.95;;;8.40;99.90;;;;;;4993642;28;20318;-78
2023/11/23 05:22:53;;;;;;;9.60;6.72;;;8.40;99.90;;;;;;4994528;28;20305;-82
2023/11/23 05:25:20;;;;;;;7.78;6.97;;;8.40;99.90;;;;;;4996004;28;20687;-78
2023/11/23 05:27:47;;;;;;;6.82;6.18;;;8.40;99.90;;;;;;4996026;28;20313;-78
2023/11/23 05:30:14;;;;;;;7.15;6.45;;;8.40;99.90;;;;;;4996318;28;20310;-82
2023/11/23 05:32:41;;;;;;;9.20;6.70;;;8.40;99.90;;;;;;4995850;28;20238;-78
2023/11/23 05:35:10;;;;;;;11.95;7.35;;;8.40;99.90;;;;;;4996249;28;20249;-83
2023/11/23 05:37:37;;;;;;;7.30;6.50;;;8.50;99.90;;;;;;4995414;28;20226;-79
2023/11/23 05:40:05;;;;;;;6.95;6.25;;;8.50;99.90;;;;;;4995856;28;20282;-83
2023/11/23 05:42:32;;;;;;;8.20;7.40;;;8.50;99.90;;;;;;4994972;28;20318;-79
2023/11/23 05:44:59;;;;;;;8.40;7.55;;;8.60;99.90;;;;;;4995852;28;20296;-82
2023/11/23 05:47:26;;;;;;;8.93;7.97;;;8.60;99.90;;;;;;4995888;28;20691;-82
2023/11/23 05:49:53;;;;;;;12.52;9.63;;;8.70;99.90;;;;;;4995142;28;20574;-83
2023/11/23 05:52:22;;;;;;;9.55;7.85;;;8.70;99.90;;;;;;4995632;28;20242;-81
2023/11/23 05:54:49;;;;;;;12.10;10.50;;;8.70;99.90;;;;;;4995476;28;20700;-80
2023/11/23 05:57:17;;;;;;;10.20;8.50;;;8.70;99.90;;;;;;4995344;28;20688;-77
2023/11/23 05:59:44;;;;;;;9.75;8.80;;;8.60;99.90;;;;;;4995144;28;20620;-81
2023/11/23 06:02:11;;;;;;;13.68;11.20;;;8.70;99.90;;;;;;4995789;28;20261;-81
2023/11/23 06:04:39;;;;;;;11.55;9.75;;;8.70;99.90;;;;;;4994958;28;20681;-77
2023/11/23 06:07:10;;;;;;;12.25;9.43;;;8.70;99.90;;;;;;4995247;28;20560;-76
2023/11/23 06:09:38;;;;;;;20.55;11.50;;;8.80;99.90;;;;;;4995106;28;20677;-77
2023/11/23 06:12:06;;;;;;;9.30;8.40;;;8.80;99.90;;;;;;4995340;28;20310;-77
2023/11/23 06:14:33;;;;;;;15.43;11.35;;;8.70;99.90;;;;;;4995433;28;20258;-78
2023/11/23 06:17:00;;;;;;;12.48;10.55;;;8.80;99.90;;;;;;4995166;28;20226;-78
2023/11/23 06:19:27;;;;;;;13.07;10.55;;;8.80;99.90;;;;;;4995252;28;20227;-78
2023/11/23 06:21:54;;;;;;;11.50;10.20;;;8.80;99.90;;;;;;4994516;28;20234;-78
2023/11/23 06:24:22;;;;;;;15.50;11.07;;;8.90;99.90;;;;;;4985007;28;20226;-82
2023/11/23 06:26:52;;;;;;;10.27;8.85;;;8.90;99.90;;;;;;4994046;28;20315;-78
2023/11/23 06:29:19;;;;;;;10.20;9.30;;;9.00;99.90;;;;;;4995072;28;20231;-78
2023/11/23 06:31:46;;;;;;;11.70;10.50;;;9.00;99.90;;;;;;4994700;28;20310;-78
2023/11/23 06:34:13;;;;;;;12.40;10.43;;;9.10;99.90;;;;;;4994985;28;20227;-77
2023/11/23 06:36:40;;;;;;;12.63;10.90;;;9.10;99.90;;;;;;4994467;28;20230;-77
2023/11/23 06:39:07;;;;;;;14.38;10.57;;;9.10;99.90;;;;;;4994817;28;20226;-77
2023/11/23 06:41:35;;;;;;;12.82;10.80;;;9.10;99.90;;;;;;4994941;28;20250;-76
2023/11/23 06:44:04;;;;;;;10.20;8.77;;;9.10;99.90;;;;;;4994321;28;20306;-77
2023/11/23 06:46:31;;;;;;;12.18;9.77;;;9.10;99.90;;;;;;4994243;28;20227;-77
2023/11/23 06:48:58;;;;;;;12.30;10.68;;;9.10;99.90;;;;;;4994167;28;20237;-79
2023/11/23 06:51:41;;;;;;;12.93;11.02;;;9.10;99.90;;;;;;4993679;28;20313;-79
2023/11/23 06:54:09;;;;;;;12.38;10.82;;;9.10;99.90;;;;;;4966951;28;20229;-78
2023/11/23 06:56:36;;;;;;;10.30;9.32;;;9.10;99.90;;;;;;4994798;28;20233;-78
2023/11/23 06:59:06;;;;;;;20.85;17.88;;;9.10;99.90;;;;;;4994098;28;20321;-77
2023/11/23 07:01:33;;;;;;;15.88;14.25;;;9.20;99.90;;;;;;4994541;28;20222;-77
2023/11/23 07:03:59;;;;;;;14.52;12.77;;;9.10;99.90;;;;;;4994044;28;20231;-77
2023/11/23 07:06:26;;;;;;;15.20;13.63;;;9.10;99.90;;;;;;4994901;28;20235;-77
2023/11/23 07:08:53;;;;;;;13.50;12.10;;;9.10;99.90;;;;;;4994147;28;20313;-77
2023/11/23 07:11:20;;;;;;;14.48;11.02;;;9.00;99.90;;;;;;4994502;28;20241;-78
2023/11/23 07:13:48;;;;;;;14.00;12.32;;;9.10;99.90;;;;;;4994431;28;20617;-78
2023/11/23 07:16:16;;;;;;;12.88;11.25;;;9.10;99.90;;;;;;4993710;28;20613;-78
2023/11/23 07:18:44;;;;;;;12.95;11.70;;;9.10;99.90;;;;;;4993719;28;20314;-78
2023/11/23 07:21:11;;;;;;;14.73;12.30;;;9.20;99.90;;;;;;4994033;28;20233;-78
2023/11/23 07:23:39;;;;;;;16.08;14.00;;;9.20;99.90;;;;;;4994232;28;20230;-78
2023/11/23 07:26:07;;;;;;;13.30;12.10;;;9.20;99.90;;;;;;4993821;28;20227;-78
2023/11/23 07:28:34;;;;;;;12.02;10.45;;;9.20;99.90;;;;;;4984939;28;20738;-78
2023/11/23 07:31:01;;;;;;;12.20;11.00;;;9.20;99.90;;;;;;4993645;28;20750;-77
2023/11/23 07:33:34;;;;;;;12.68;11.48;;;9.30;99.90;;;;;;4994441;28;20680;-77
2023/11/23 07:36:02;;;;;;;11.65;9.80;;;9.30;99.90;;;;;;4993595;28;20297;-78
2023/11/23 07:38:29;;;;;;;20.27;17.08;;;9.30;99.90;;;;;;4994290;28;20223;-82
2023/11/23 07:40:56;;;;;;;11.40;10.23;;;9.30;99.90;;;;;;4993491;28;20242;-78
2023/11/23 07:43:24;;;;;;;10.85;9.68;;;9.30;99.90;;;;;;4993493;28;20310;-77
2023/11/23 07:45:52;;;;;;;11.13;9.07;;;9.30;99.90;;;;;;4994668;28;20226;-79
2023/11/23 07:48:19;;;;;;;13.15;11.48;;;9.40;99.90;;;;;;4994162;28;20595;-83
2023/11/23 07:50:47;;;;;;;12.15;10.85;;;9.40;99.90;;;;;;4994759;28;20305;-78
2023/11/23 07:53:15;;;;;;;11.07;9.95;;;9.40;99.90;;;;;;4993364;28;20233;-77
2023/11/23 07:55:42;;;;;;;10.85;9.70;;;9.50;99.90;;;;;;4994311;28;20265;-78
2023/11/23 07:58:09;;;;;;;13.50;11.95;;;9.40;99.90;;;;;;4993728;28;20574;-76
2023/11/23 08:00:38;;;;;;;13.90;12.45;;;9.40;99.90;;;;;;4993883;28;20305;-78
2023/11/23 08:03:05;;;;;;;13.38;11.98;;;9.40;99.90;;;;;;4993199;28;20231;-79
2023/11/23 08:05:32;;;;;;;10.88;9.05;;;9.40;99.90;;;;;;4993689;28;20234;-78
2023/11/23 08:08:04;;;;;;;12.35;10.77;;;9.40;99.90;;;;;;4994196;28;20250;-84
2023/11/23 08:10:45;;;;;;;11.80;10.43;;;9.40;99.90;;;;;;4993655;28;20222;-83
2023/11/23 08:13:16;;;;;;;10.63;8.35;;;9.40;99.90;;;;;;4992852;28;20287;-79
2023/11/23 08:15:43;;;;;;;15.15;11.80;;;9.40;99.90;;;;;;4993494;28;20314;-78
2023/11/23 08:18:32;;;;;;;12.52;9.82;;;9.40;99.90;;;;;;4989823;28;20223;-78
2023/11/23 08:21:01;;;;;;;10.80;9.80;;;9.40;99.90;;;;;;4993938;28;20545;-82
2023/11/23 08:23:30;;;;;;;12.10;10.80;;;9.40;99.90;;;;;;4993297;28;20309;-83
2023/11/23 08:25:56;;;;;;;10.48;9.38;;;9.40;99.90;;;;;;4992525;28;20222;-83
2023/11/23 08:28:23;;;;;;;15.18;11.95;;;9.40;99.90;;;;;;4994704;28;20707;-83
2023/11/23 08:30:51;;;;;;;12.75;11.55;;;9.40;99.90;;;;;;4997791;28;20223;-83
2023/11/23 08:33:25;;;;;;;16.73;13.68;;;9.40;99.90;;;;;;4997308;28;20597;-82
2023/11/23 08:35:53;;;;;;;13.75;11.43;;;9.40;99.90;;;;;;4997193;28;20219;-83
2023/11/23 08:38:20;;;;;;;11.10;9.82;;;9.50;99.90;;;;;;4996601;28;20307;-83
2023/11/23 08:43:36;;;;;;;10.70;9.60;;;9.60;99.90;;;;;;4996586;28;20566;-78
2023/11/23 08:46:07;;;;;;;10.95;9.88;;;9.60;99.90;;;;;;4997296;28;20227;-78
2023/11/23 08:48:33;;;;;;;11.35;9.20;;;9.60;99.90;;;;;;4996549;28;20285;-78
2023/11/23 08:51:00;;;;;;;10.27;9.38;;;9.70;99.90;;;;;;4997173;28;20233;-78
2023/11/23 08:53:27;;;;;;;11.75;10.43;;;9.60;99.90;;;;;;4996232;28;20230;-77
2023/11/23 08:55:58;;;;;;;11.13;10.02;;;9.60;99.90;;;;;;4997354;28;20309;-77
2023/11/23 08:58:25;;;;;;;13.40;9.07;;;9.70;99.90;;;;;;4985535;28;20234;-78
2023/11/23 09:00:52;;;;;;;11.65;9.30;;;9.70;99.90;;;;;;4997366;28;20742;-78
2023/11/23 09:03:26;;;;;;;11.95;9.80;;;9.70;99.90;;;;;;4997036;28;20231;-77
2023/11/23 09:05:53;;;;;;;9.98;9.00;;;9.80;99.90;;;;;;4996362;28;20229;-78
2023/11/23 09:08:20;;;;;;;13.02;9.23;;;9.80;99.90;;;;;;4996703;28;20277;-78
2023/11/23 09:10:48;;;;;;;13.68;10.77;;;9.90;99.90;;;;;;4996640;28;20322;-78
2023/11/23 09:13:25;;;;;;;9.63;8.07;;;9.80;99.90;;;;;;4996525;28;20226;-78
2023/11/23 09:15:53;;;;;;;10.80;9.68;;;9.90;99.90;;;;;;4996518;28;20645;-77
2023/11/23 09:18:21;;;;;;;10.50;9.00;;;9.90;99.90;;;;;;4996916;28;20250;-78
2023/11/23 09:20:48;;;;;;;9.68;8.70;;;9.90;99.90;;;;;;4996514;28;20569;-78
2023/11/23 09:23:16;;;;;;;10.55;9.52;;;10.00;99.90;;;;;;4996888;28;20226;-77
2023/11/23 09:25:43;;;;;;;9.88;8.88;;;9.90;99.90;;;;;;4996569;28;20227;-77
2023/11/23 09:28:10;;;;;;;14.20;9.70;;;9.90;99.90;;;;;;4996535;28;20227;-77
2023/11/23 09:30:39;;;;;;;16.02;12.70;;;9.90;99.90;;;;;;4996238;28;20634;-77
2023/11/23 09:33:09;;;;;;;12.00;10.80;;;9.90;99.90;;;;;;4996852;28;20564;-78
2023/11/23 09:35:37;;;;;;;13.38;10.82;;;10.00;99.90;;;;;;4996389;28;20223;-78
2023/11/23 09:38:04;;;;;;;10.85;9.25;;;10.00;99.90;;;;;;4996384;28;20548;-78
2023/11/23 09:40:32;;;;;;;9.95;8.52;;;10.00;99.90;;;;;;4994252;28;20231;-78
2023/11/23 09:42:59;;;;;;;12.65;11.32;;;10.00;99.90;;;;;;4996173;28;20305;-78
2023/11/23 09:45:26;;;;;;;9.23;8.43;;;10.00;99.90;;;;;;4997032;28;20231;-77
2023/11/23 09:47:56;;;;;;;10.45;8.10;;;10.10;99.90;;;;;;4996553;28;20305;-78
2023/11/23 09:50:24;;;;;;;13.27;9.57;;;10.10;99.90;;;;;;4997331;28;20250;-78
2023/11/23 09:52:54;;;;;;;8.05;7.35;;;10.10;99.90;;;;;;4996461;28;20238;-78
2023/11/23 09:55:22;;;;;;;9.68;8.68;;;10.10;99.90;;;;;;4997199;28;20222;-78
2023/11/23 09:57:49;;;;;;;12.70;9.77;;;10.20;99.90;;;;;;4996397;28;20222;-76
2023/11/23 10:00:18;;;;;;;10.35;9.32;;;10.20;99.90;;;;;;4997565;28;20223;-76
2023/11/23 10:02:49;;;;;;;10.63;9.52;;;10.20;99.90;;;;;;4996648;28;20233;-76
2023/11/23 10:05:18;;;;;;;9.80;8.40;;;10.30;99.90;;;;;;4996400;28;20227;-76
2023/11/23 10:07:47;;;;;;;10.40;9.30;;;10.30;99.90;;;;;;4993756;28;20229;-76
2023/11/23 10:10:15;;;;;;;7.60;6.90;;;10.30;99.90;;;;;;4999933;28;20223;-77
2023/11/23 10:12:44;;;;;;;10.35;9.35;;;10.30;99.90;;;;;;4995549;28;20273;-77
2023/11/23 10:15:12;;;;;;;12.52;9.65;;;10.30;99.90;;;;;;4988685;28;20318;-77
2023/11/23 10:17:43;;;;;;;10.25;9.25;;;10.30;99.90;;;;;;4995277;28;20215;-77
2023/11/23 10:20:12;;;;;;;10.73;9.15;;;10.20;99.90;;;;;;4995849;28;20222;-77
2023/11/23 10:22:44;;;;;;;13.00;10.85;;;10.20;99.90;;;;;;4992378;28;20223;-77
2023/11/23 10:25:11;;;;;;;11.68;10.48;;;10.20;99.90;;;;;;4976826;28;20235;-77
2023/11/23 10:27:38;;;;;;;9.23;8.43;;;10.20;99.90;;;;;;4992627;28;20241;-77
2023/11/23 10:30:06;;;;;;;9.60;8.60;;;10.30;99.90;;;;;;4995635;28;20278;-77
2023/11/23 10:32:36;;;;;;;9.85;9.05;;;10.30;99.90;;;;;;5006752;28;20547;-77
2023/11/23 10:35:09;;;;;;;8.63;7.80;;;10.30;99.90;;;;;;5015369;28;20222;-77
2023/11/23 10:37:40;;;;;;;9.40;8.50;;;10.30;99.90;;;;;;5015519;28;20249;-77
2023/11/23 10:40:08;;;;;;;10.00;8.90;;;10.30;99.90;;;;;;5015998;28;20424;-77
2023/11/23 10:42:36;;;;;;;10.07;8.63;;;10.30;99.90;;;;;;5014729;28;20614;-77
2023/11/23 10:45:03;;;;;;;9.77;8.70;;;10.30;99.90;;;;;;4995727;28;20283;-76
2023/11/23 10:47:30;;;;;;;10.23;9.15;;;10.40;99.90;;;;;;4996001;28;20245;-77
2023/11/23 10:50:00;;;;;;;9.68;8.68;;;10.40;99.90;;;;;;4995816;28;20223;-82
2023/11/23 10:52:28;;;;;;;8.93;8.13;;;10.40;99.90;;;;;;4996377;28;20227;-77
2023/11/23 10:54:56;;;;;;;7.65;7.05;;;10.40;99.90;;;;;;4996646;28;20692;-77
2023/11/23 10:57:25;;;;;;;9.00;8.20;;;10.50;99.90;;;;;;4995708;28;20321;-77
2023/11/23 10:59:54;;;;;;;9.32;8.18;;;10.50;99.90;;;;;;4995763;28;20226;-77
2023/11/23 11:02:25;;;;;;;8.20;7.40;;;10.60;99.90;;;;;;4997431;28;20319;-77
2023/11/23 11:04:52;;;;;;;9.30;8.40;;;10.60;99.90;;;;;;4999631;28;20281;-77
2023/11/23 11:07:28;;;;;;;9.10;7.65;;;10.60;99.90;;;;;;5003164;28;20226;-76
2023/11/23 11:10:06;;;;;;;9.15;8.20;;;10.50;99.90;;;;;;5000549;28;20223;-76
2023/11/23 11:12:37;;;;;;;9.23;8.30;;;10.50;99.90;;;;;;4994429;28;20226;-77
2023/11/23 11:15:06;;;;;;;9.80;8.75;;;10.50;99.90;;;;;;4995454;28;20223;-77
2023/11/23 11:17:38;;;;;;;8.98;8.18;;;10.50;99.90;;;;;;4994431;28;20222;-77
2023/11/23 11:20:08;;;;;;;9.57;8.57;;;10.50;99.90;;;;;;4995403;28;20301;-77
2023/11/23 11:22:35;;;;;;;11.50;8.63;;;10.50;99.90;;;;;;4995151;28;20687;-77
2023/11/23 11:25:04;;;;;;;8.73;7.97;;;10.60;99.90;;;;;;4996872;28;20282;-77
2023/11/23 11:30:24;;;;;;;8.82;7.82;;;10.60;99.90;;;;;;4992565;28;20230;-76
2023/11/23 11:32:53;;;;;;;9.20;8.18;;;10.60;99.90;;;;;;4984162;28;20226;-77
2023/11/23 11:35:21;;;;;;;9.32;8.32;;;10.60;99.90;;;;;;4995677;28;20711;-82
2023/11/23 11:37:48;;;;;;;9.38;8.48;;;10.60;99.90;;;;;;5010531;28;20218;-77
2023/11/23 11:40:17;;;;;;;11.82;10.63;;;10.60;99.90;;;;;;5011898;28;20683;-77
2023/11/23 11:42:45;;;;;;;10.95;9.80;;;10.70;99.90;;;;;;5013575;28;20302;-77
2023/11/23 11:45:12;;;;;;;11.10;9.88;;;10.70;99.90;;;;;;5029548;28;20289;-77
2023/11/23 11:47:40;;;;;;;10.90;9.25;;;10.70;99.90;;;;;;5012293;28;20227;-77
2023/11/23 11:50:08;;;;;;;8.50;7.30;;;10.70;99.90;;;;;;4995834;28;20311;-76
2023/11/23 11:52:37;;;;;;;8.55;7.70;;;10.80;99.90;;;;;;5010571;28;20494;-77
2023/11/23 11:55:05;;;;;;;11.25;9.80;;;10.80;99.90;;;;;;5012852;28;20249;-77
2023/11/23 11:57:41;;;;;;;9.80;8.80;;;10.80;99.90;;;;;;5012093;28;20707;-77
2023/11/23 12:00:09;;;;;;;9.68;8.68;;;10.90;99.90;;;;;;5012822;28;20242;-77
2023/11/23 12:02:36;;;;;;;9.27;8.50;;;10.90;99.90;;;;;;5010805;28;20282;-77
2023/11/23 12:05:08;;;;;;;12.68;10.52;;;10.90;99.90;;;;;;5017488;28;20226;-77
2023/11/23 12:07:35;;;;;;;8.07;7.28;;;11.00;99.90;;;;;;5013925;28;20237;-77
2023/11/23 12:10:03;;;;;;;7.15;6.45;;;11.00;99.90;;;;;;5013997;28;20262;-77
2023/11/23 12:12:45;;;;;;;7.47;6.78;;;11.00;99.90;;;;;;5007887;28;20231;-77
2023/11/23 12:15:19;;;;;;;7.25;6.38;;;11.10;99.90;;;;;;5001618;28;20226;-77
2023/11/23 12:17:49;;;;;;;11.50;8.98;;;11.10;99.90;;;;;;5008035;28;20226;-77
2023/11/23 12:20:17;;;;;;;7.15;6.47;;;11.20;99.90;;;;;;5008631;28;20230;-77
2023/11/23 12:22:45;;;;;;;7.15;6.50;;;11.20;99.90;;;;;;5001811;28;20234;-77
2023/11/23 12:25:13;;;;;;;7.72;6.90;;;11.30;99.90;;;;;;5007691;28;20238;-77
2023/11/23 12:27:44;;;;;;;10.13;9.20;;;11.30;99.90;;;;;;5001691;28;20233;-77
2023/11/23 12:30:15;;;;;;;6.55;5.95;;;11.30;99.90;;;;;;5001668;28;20239;-77
2023/11/23 12:32:43;;;;;;;7.40;6.70;;;11.30;99.90;;;;;;5001798;28;20239;-77
2023/11/23 12:35:10;;;;;;;6.35;5.75;;;11.30;99.90;;;;;;5002474;28;20277;-77
2023/11/23 12:37:37;;;;;;;5.80;5.30;;;11.40;99.90;;;;;;5004921;28;20256;-77
2023/11/23 12:40:10;;;;;;;7.03;6.43;;;11.40;99.90;;;;;;5018058;28;20222;-78
2023/11/23 12:42:37;;;;;;;6.20;5.68;;;11.50;99.90;;;;;;5017494;28;20252;-77
2023/11/23 12:45:08;;;;;;;6.70;6.10;;;11.50;99.90;;;;;;5017433;28;20222;-77
2023/11/23 12:47:35;;;;;;;8.80;8.00;;;11.50;99.90;;;;;;5003089;28;20546;-77
2023/11/23 12:50:04;;;;;;;8.45;7.60;;;11.50;99.90;;;;;;4997401;28;20244;-77
2023/11/23 12:52:52;;;;;;;10.80;9.30;;;11.50;99.90;;;;;;5003990;28;20633;-77
2023/11/23 12:55:35;;;;;;;11.38;9.63;;;11.60;99.90;;;;;;4961836;28;20274;-78
2023/11/23 12:58:02;;;;;;;7.07;6.47;;;11.60;99.90;;;;;;4977806;28;20289;-83
2023/11/23 13:00:35;;;;;;;6.95;6.32;;;11.70;99.90;;;;;;4979356;28;20242;-83